Time;durP1;ratioP1;P1;durP2;ratioP2;P2;SDS_P1;SDS_P2;PMS_P1;PMS_P2;Temp;Humidity;BMP_temperature;BMP_pressure;BME280_temperature;BME280_humidity;BME280_pressure;Samples;Min_cycle;Max_cycle;Signal;HPM_P1;HPM_P2
2023/01/29 00:02:03;;;;;;;73.05;30.85;;;2.10;99.90;;;0.46;100.00;102063.09;4854820;28;20031;-86
2023/01/29 00:04:39;;;;;;;70.75;31.13;;;;;;;0.51;100.00;102066.59;4864874;28;20132;-84
2023/01/29 00:07:39;;;;;;;73.68;32.10;;;2.20;99.90;;;0.52;100.00;102058.00;4881338;28;20036;-84
2023/01/29 00:10:50;;;;;;;77.20;33.28;;;2.20;99.90;;;0.55;100.00;102062.34;4839647;28;20068;-84
2023/01/29 00:13:16;;;;;;;84.53;33.53;;;2.20;99.90;;;0.54;100.00;102066.69;4905215;23;20856;-82
2023/01/29 00:15:55;;;;;;;88.00;34.53;;;2.20;99.90;;;0.55;100.00;102071.00;4883912;28;20038;-80
2023/01/29 00:18:30;;;;;;;81.97;33.63;;;2.20;99.90;;;0.60;100.00;102063.28;4921861;28;20043;-79
2023/01/29 00:20:59;;;;;;;86.35;34.28;;;2.20;99.90;;;0.61;100.00;102060.72;4862517;28;20091;-80
2023/01/29 00:23:34;;;;;;;90.65;35.83;;;2.20;99.90;;;0.62;100.00;102059.00;4854763;28;20051;-80
2023/01/29 00:26:00;;;;;;;79.93;33.60;;;2.30;99.90;;;0.61;100.00;102060.72;4917123;28;20494;-79
2023/01/29 00:28:25;;;;;;;88.15;34.22;;;2.30;99.90;;;0.65;100.00;102053.00;4895545;28;20110;-81
2023/01/29 00:30:51;;;;;;;81.63;33.20;;;2.30;99.90;;;0.69;100.00;102057.38;4916516;28;20630;-80
2023/01/29 00:33:20;;;;;;;83.55;33.03;;;2.30;99.90;;;0.69;100.00;102045.31;4905766;28;20078;-80
2023/01/29 00:35:48;;;;;;;75.80;33.22;;;2.30;99.90;;;0.73;100.00;102043.63;4856414;28;20046;-80
2023/01/29 00:38:14;;;;;;;85.07;35.28;;;2.30;99.90;;;0.73;100.00;102030.66;4894009;28;20044;-80
2023/01/29 00:46:12;;;;;;;91.10;35.67;;;2.40;99.90;;;0.77;100.00;102029.84;4917462;28;20134;-79
2023/01/29 00:48:38;;;;;;;93.50;36.35;;;2.40;99.90;;;0.76;100.00;102020.34;4908449;28;20523;-80
2023/01/29 00:51:04;;;;;;;104.05;36.85;;;2.40;99.90;;;0.76;100.00;102018.63;4890171;28;20088;-80
2023/01/29 00:53:30;;;;;;;98.05;35.40;;;2.40;99.90;;;0.76;100.00;102020.34;4920590;28;20050;-79
2023/01/29 00:55:56;;;;;;;101.13;37.38;;;2.40;99.90;;;0.79;100.00;102017.78;4893916;28;20038;-81
2023/01/29 00:58:33;;;;;;;102.35;38.72;;;2.40;99.90;;;0.81;100.00;102009.16;4868269;28;20040;-80
2023/01/29 01:01:01;;;;;;;102.57;37.15;;;2.50;99.90;;;0.79;100.00;102013.47;4875083;28;20130;-79
2023/01/29 01:03:34;;;;;;;103.80;37.95;;;2.50;99.90;;;0.84;100.00;102010.94;4908313;28;20061;-80
2023/01/29 01:06:08;;;;;;;104.80;38.60;;;2.50;99.90;;;0.87;100.00;102013.59;4899698;28;20047;-80
2023/01/29 01:11:21;;;;;;;112.50;39.80;;;2.50;99.90;;;0.91;100.00;102012.78;4888175;28;20041;-79
2023/01/29 01:13:47;;;;;;;115.47;38.33;;;2.50;99.90;;;0.92;100.00;102014.50;4894908;28;20046;-80
2023/01/29 01:16:19;;;;;;;122.03;41.22;;;2.60;99.90;;;0.93;100.00;102015.38;4911154;28;20050;-81
2023/01/29 01:18:45;;;;;;;117.50;40.05;;;2.60;99.90;;;0.96;100.00;102010.25;4883470;28;20039;-80
2023/01/29 01:21:11;;;;;;;123.97;40.00;;;2.60;99.90;;;0.98;100.00;102011.13;4861742;29;20035;-79
2023/01/29 01:23:36;;;;;;;120.72;39.58;;;2.60;99.90;;;1.00;100.00;102010.31;4863177;28;20135;-79
2023/01/29 01:26:09;;;;;;;126.43;41.08;;;2.60;99.90;;;1.00;100.00;102010.31;4910263;28;20114;-79
2023/01/29 01:28:35;;;;;;;120.38;39.58;;;2.60;99.90;;;1.06;100.00;102012.13;4898570;28;20042;-81
2023/01/29 01:31:17;;;;;;;119.10;40.35;;;2.70;99.90;;;1.09;100.00;102014.75;4842262;28;20043;-79
2023/01/29 01:33:43;;;;;;;106.00;35.47;;;2.70;99.90;;;1.09;100.00;102013.88;4859569;29;20028;-79
2023/01/29 01:36:09;;;;;;;111.30;39.17;;;2.70;99.90;;;1.09;100.00;102019.94;4880383;28;20162;-80
2023/01/29 01:38:47;;;;;;;127.80;41.28;;;2.70;99.90;;;1.14;100.00;102017.41;4897228;28;20039;-80
2023/01/29 01:41:23;;;;;;;120.20;39.80;;;2.70;99.90;;;1.13;100.00;102000.97;4864753;28;20054;-80
2023/01/29 01:43:59;;;;;;;117.20;40.15;;;2.80;99.90;;;1.16;100.00;101995.81;4864048;29;20056;-80
2023/01/29 01:46:33;;;;;;;121.68;39.25;;;2.70;99.90;;;1.16;100.00;101995.81;4868773;29;20043;-81
2023/01/29 01:49:17;;;;;;;131.07;39.88;;;2.80;99.90;;;1.15;100.00;101991.47;4870654;28;20122;-80
2023/01/29 01:51:49;;;;;;;128.48;40.92;;;2.80;99.90;;;1.17;100.00;101988.91;4888381;28;20031;-80
2023/01/29 01:54:31;;;;;;;138.05;42.15;;;2.80;99.90;;;1.21;100.00;101994.16;4889349;23;20050;-81
2023/01/29 01:57:16;;;;;;;130.48;40.83;;;2.80;99.90;;;1.22;100.00;101993.28;4942013;28;20030;-81
2023/01/29 01:59:57;;;;;;;127.20;40.30;;;2.80;99.90;;;1.19;100.00;101998.44;4904370;28;20037;-81
2023/01/29 02:10:49;;;;;;;145.32;44.05;;;2.90;99.90;;;1.28;100.00;101987.31;4951925;28;20049;-81
2023/01/29 02:13:17;;;;;;;145.18;43.85;;;2.90;99.90;;;1.30;100.00;101983.00;4882504;28;20038;-82
2023/01/29 02:15:51;;;;;;;153.43;45.45;;;2.90;99.90;;;1.34;100.00;101982.19;4909589;28;20044;-80
2023/01/29 02:18:20;;;;;;;159.30;43.50;;;2.90;99.90;;;1.36;100.00;101972.72;4893555;28;20457;-80
2023/01/29 02:21:27;;;;;;;154.88;44.90;;;2.90;99.90;;;1.36;100.00;101967.50;4924209;28;20042;-79
2023/01/29 02:23:56;;;;;;;;;;;3.00;99.90;;;1.33;100.00;101964.88;4928975;28;20053;-81
2023/01/29 02:26:32;;;;;;;163.00;43.45;;;2.90;99.90;;;1.32;100.00;101951.88;4912107;28;19914;-81
2023/01/29 02:29:26;;;;;;;158.73;43.65;;;3.00;99.90;;;1.36;100.00;101953.66;4941429;28;20065;-80
2023/01/29 02:32:04;;;;;;;168.23;45.00;;;3.00;99.90;;;1.33;100.00;101946.69;4926676;28;20520;-79
2023/01/29 02:37:38;;;;;;;166.80;44.33;;;3.00;99.90;;;1.39;100.00;101946.78;4917343;28;20081;-80
2023/01/29 02:40:19;;;;;;;173.43;45.45;;;3.00;99.90;;;1.39;100.00;101945.91;4886298;28;20035;-81
2023/01/29 02:43:42;;;;;;;152.07;44.13;;;3.00;99.90;;;1.39;100.00;101941.59;4938066;28;20046;-79
2023/01/29 02:46:15;;;;;;;161.73;44.30;;;3.00;99.90;;;1.38;100.00;101932.06;4923935;28;20030;-80
2023/01/29 02:49:20;;;;;;;158.55;43.85;;;3.00;99.90;;;1.41;100.00;101931.22;4947913;28;20027;-79
2023/01/29 02:52:04;;;;;;;163.13;43.50;;;3.00;99.90;;;1.45;100.00;101935.59;4939272;28;20030;-80
2023/01/29 02:55:03;;;;;;;162.77;42.60;;;3.00;99.90;;;1.47;100.00;101927.81;4933138;28;20408;-79
2023/01/29 02:57:36;;;;;;;169.10;42.13;;;3.00;99.90;;;1.44;100.00;101916.53;4971371;28;20057;-79
2023/01/29 03:00:23;;;;;;;170.50;44.17;;;3.00;99.90;;;1.47;100.00;101913.13;4905685;28;20394;-80
2023/01/29 03:03:17;;;;;;;163.45;43.70;;;3.10;99.90;;;1.48;100.00;101901.00;4916830;28;20448;-79
2023/01/29 03:06:34;;;;;;;187.40;42.92;;;3.00;99.90;;;1.47;100.00;101907.94;4949658;28;20073;-79
2023/01/29 03:09:24;;;;;;;176.25;44.85;;;3.10;99.90;;;1.51;100.00;101903.63;4957477;28;20118;-79
2023/01/29 03:11:57;;;;;;;182.85;44.90;;;3.10;99.90;;;1.53;100.00;101907.09;4940487;28;20121;-79
2023/01/29 03:17:26;;;;;;;159.70;42.20;;;3.10;99.90;;;1.57;100.00;101914.06;4885426;28;20097;-81
2023/01/29 03:19:52;;;;;;;194.05;45.17;;;3.10;99.90;;;1.60;100.00;101917.56;4905857;28;20065;-78
2023/01/29 03:22:22;;;;;;;176.10;42.45;;;3.20;99.90;;;1.62;100.00;101920.16;4937512;28;20057;-79
2023/01/29 03:33:49;;;;;;;191.35;41.65;;;3.20;99.90;;;1.67;100.00;101909.84;4926666;28;20025;-80
2023/01/29 03:36:55;;;;;;;198.77;43.17;;;3.20;99.90;;;1.70;100.00;101900.34;4933881;28;20026;-80
2023/01/29 03:39:23;;;;;;;203.70;42.92;;;3.30;99.90;;;1.71;100.00;101904.69;4936494;28;20045;-80
2023/01/29 03:42:09;;;;;;;193.95;44.33;;;3.30;99.90;;;1.70;100.00;101904.66;4902383;28;20027;-81
2023/01/29 03:45:04;;;;;;;179.93;42.65;;;3.30;99.90;;;1.70;100.00;101908.13;4921007;28;20039;-80
2023/01/29 03:47:49;;;;;;;190.30;42.17;;;3.30;99.90;;;1.72;100.00;101916.81;4922531;28;20423;-81
2023/01/29 03:50:50;;;;;;;179.38;41.60;;;3.30;99.90;;;1.73;100.00;101915.06;4922606;28;20041;-80
2023/01/29 03:53:28;;;;;;;184.05;41.00;;;3.30;99.90;;;1.76;100.00;101910.78;4936853;28;20043;-81
2023/01/29 03:56:36;;;;;;;198.60;41.65;;;3.30;99.90;;;1.76;100.00;101908.19;4917439;28;20039;-80
2023/01/29 03:59:15;;;;;;;178.15;40.35;;;3.30;99.90;;;1.75;100.00;101903.88;4930267;28;20050;-80
2023/01/29 04:01:59;;;;;;;183.63;41.38;;;3.40;99.90;;;1.79;100.00;101905.63;4930639;28;20030;-78
2023/01/29 04:04:38;;;;;;;176.68;39.72;;;3.40;99.90;;;1.82;100.00;101915.19;4914386;28;20045;-79
2023/01/29 04:07:16;;;;;;;167.18;39.92;;;3.40;99.90;;;1.81;100.00;101914.31;4984554;28;20038;-82
2023/01/29 04:09:59;;;;;;;170.93;39.72;;;3.40;99.90;;;1.87;100.00;101917.81;4927316;28;20735;-79
2023/01/29 04:12:34;;;;;;;172.70;39.20;;;3.40;99.90;;;1.88;100.00;101911.75;4938806;28;20042;-80
2023/01/29 04:15:04;;;;;;;177.60;39.92;;;3.40;99.90;;;1.88;100.00;101916.94;4928061;28;20106;-81
2023/01/29 04:17:39;;;;;;;160.80;39.08;;;3.50;99.90;;;1.88;100.00;101917.81;4931637;28;20046;-80
2023/01/29 04:20:06;;;;;;;172.73;37.45;;;3.50;99.90;;;1.92;100.00;101913.50;4941298;28;20041;-78
2023/01/29 04:22:35;;;;;;;149.23;37.33;;;3.50;99.90;;;1.93;100.00;101916.13;4962350;28;20034;-79
2023/01/29 04:25:14;;;;;;;163.32;38.80;;;3.50;99.90;;;1.95;100.00;101911.81;4944748;28;20035;-78
2023/01/29 04:28:36;;;;;;;164.23;38.47;;;3.50;99.90;;;1.95;100.00;101898.81;4942770;28;20035;-79
2023/01/29 04:31:16;;;;;;;156.85;39.08;;;3.60;99.90;;;1.96;100.00;101894.50;4914494;28;20070;-79
2023/01/29 04:34:12;;;;;;;182.60;40.17;;;3.60;99.90;;;1.96;100.00;101894.50;4921351;28;20474;-79
2023/01/29 04:37:01;;;;;;;170.18;38.75;;;3.50;99.90;;;1.95;100.00;101879.78;4938489;28;20035;-81
2023/01/29 04:39:46;;;;;;;205.73;40.28;;;3.60;99.90;;;2.00;100.00;101884.13;4865544;28;20030;-81
2023/01/29 04:43:01;;;;;;;185.10;37.90;;;3.60;99.90;;;1.97;100.00;101878.94;4916923;28;20500;-80
2023/01/29 04:45:43;;;;;;;161.27;36.10;;;3.60;99.90;;;2.00;100.00;101878.06;4922147;28;20051;-80
2023/01/29 04:48:19;;;;;;;177.43;38.50;;;3.60;99.90;;;1.99;100.00;101868.56;4923920;28;20045;-79
2023/01/29 04:51:16;;;;;;;166.40;37.00;;;3.60;99.90;;;1.99;100.00;101876.34;4914071;28;20062;-80
2023/01/29 04:54:26;;;;;;;164.32;37.83;;;3.60;99.90;;;1.99;100.00;101872.00;4908713;28;20105;-79
2023/01/29 04:57:11;;;;;;;170.43;37.65;;;3.70;99.90;;;2.02;100.00;101877.22;4930521;28;20046;-79
2023/01/29 04:59:46;;;;;;;158.70;37.25;;;3.60;99.90;;;2.03;100.00;101865.97;4919106;28;20099;-81
2023/01/29 05:02:13;;;;;;;159.80;36.05;;;3.60;99.90;;;2.06;100.00;101870.31;4893763;28;20031;-79
2023/01/29 05:04:42;;;;;;;173.65;37.55;;;3.60;99.90;;;2.09;100.00;101872.06;4904986;28;20166;-79
2023/01/29 05:07:19;;;;;;;150.50;35.70;;;3.60;99.90;;;2.10;100.00;101866.91;4899277;28;20085;-80
2023/01/29 05:09:46;;;;;;;167.88;36.95;;;3.70;99.90;;;2.13;100.00;101869.50;4924672;28;20050;-80
2023/01/29 05:12:18;;;;;;;173.18;37.28;;;3.70;99.90;;;2.13;100.00;101868.63;4918421;28;20072;-80
2023/01/29 05:14:46;;;;;;;187.02;41.25;;;3.70;99.90;;;2.11;100.00;101853.03;4915503;28;20078;-81
2023/01/29 05:17:26;;;;;;;223.57;44.88;;;3.70;99.90;;;2.15;100.00;101862.59;4918652;28;20575;-80
2023/01/29 05:19:54;;;;;;;214.05;43.60;;;3.70;99.90;;;2.18;100.00;101857.44;4913456;28;20035;-79
2023/01/29 05:22:22;;;;;;;218.50;43.15;;;3.70;99.90;;;2.16;100.00;101838.34;4907737;28;20089;-79
2023/01/29 05:24:52;;;;;;;212.82;43.88;;;3.70;99.90;;;2.16;100.00;101830.56;4901866;28;20041;-81
2023/01/29 05:30:12;;;;;;;207.20;42.58;;;3.80;99.90;;;2.19;100.00;101838.34;4944688;28;20104;-80
2023/01/29 05:32:38;;;;;;;222.35;46.20;;;3.80;99.90;;;2.20;100.00;101819.31;4926568;28;20027;-81
2023/01/29 05:35:05;;;;;;;218.07;43.22;;;3.80;99.90;;;2.20;100.00;101832.31;4896039;28;20062;-81
2023/01/29 05:37:31;;;;;;;207.00;44.88;;;3.80;99.90;;;2.22;100.00;101840.97;4906503;28;20035;-79
2023/01/29 05:39:56;;;;;;;224.10;46.00;;;3.80;99.90;;;2.24;100.00;101846.19;4938042;28;20510;-81
2023/01/29 05:42:31;;;;;;;221.00;45.28;;;3.80;99.90;;;2.24;100.00;101834.03;4916479;28;20031;-81
2023/01/29 05:44:57;;;;;;;187.65;43.28;;;3.80;99.90;;;2.24;100.00;101826.25;4926605;28;20022;-81
2023/01/29 05:47:23;;;;;;;182.88;42.13;;;3.80;99.90;;;2.24;100.00;101826.25;4923819;28;20128;-79
2023/01/29 05:49:49;;;;;;;167.00;40.58;;;3.80;99.90;;;2.25;100.00;101822.81;4889367;28;20114;-80
2023/01/29 05:52:20;;;;;;;158.73;40.20;;;3.80;99.90;;;2.27;100.00;101830.63;4900925;28;20578;-81
2023/01/29 05:54:48;;;;;;;150.38;37.38;;;3.80;99.90;;;2.26;100.00;101819.31;4877507;28;20035;-80
2023/01/29 05:57:14;;;;;;;139.77;38.03;;;3.80;99.90;;;2.25;100.00;101809.81;4920222;28;20051;-81
2023/01/29 05:59:40;;;;;;;150.75;37.88;;;3.90;99.90;;;2.25;100.00;101795.94;4894225;28;20074;-80
2023/01/29 06:02:13;;;;;;;140.77;37.97;;;3.90;99.90;;;2.29;100.00;101799.41;4953276;28;20109;-80
2023/01/29 06:04:38;;;;;;;132.95;35.90;;;3.90;99.90;;;2.29;100.00;101804.63;4932375;28;20058;-81
2023/01/29 06:07:04;;;;;;;138.68;37.20;;;3.90;99.90;;;2.33;100.00;101811.56;4896257;28;20516;-79
2023/01/29 06:09:30;;;;;;;139.35;36.63;;;3.90;99.90;;;2.35;100.00;101812.44;4902195;28;20189;-79
2023/01/29 06:11:56;;;;;;;134.73;36.08;;;3.90;99.90;;;2.36;100.00;101822.00;4938340;28;20034;-79
2023/01/29 06:14:31;;;;;;;135.88;35.83;;;3.90;99.90;;;2.40;100.00;101823.75;4919871;28;20038;-80
2023/01/29 06:16:57;;;;;;;124.27;35.43;;;3.90;99.90;;;2.41;100.00;101822.88;4920213;28;20049;-79
2023/01/29 06:19:23;;;;;;;121.00;34.38;;;4.00;99.90;;;2.41;100.00;101822.88;4895456;28;20039;-80
2023/01/29 06:21:48;;;;;;;129.93;34.78;;;4.00;99.90;;;2.43;100.00;101831.56;4925522;28;20130;-81
2023/01/29 06:24:23;;;;;;;123.93;36.28;;;4.00;99.90;;;2.42;100.00;101829.84;4911521;28;20130;-81
2023/01/29 06:26:49;;;;;;;123.40;34.72;;;4.00;99.90;;;2.42;100.00;101835.03;4924510;28;20057;-80
2023/01/29 06:29:26;;;;;;;124.05;34.05;;;4.00;99.90;;;2.41;100.00;101809.88;4926837;28;20121;-80
2023/01/29 06:31:52;;;;;;;112.75;33.53;;;4.00;99.90;;;2.41;100.00;101791.69;4915763;28;20045;-81
2023/01/29 06:34:20;;;;;;;119.85;33.92;;;4.00;99.90;;;2.45;100.00;101803.84;4930074;28;20030;-81
2023/01/29 06:36:53;;;;;;;106.38;32.95;;;4.00;99.90;;;2.49;100.00;101799.53;4901998;28;20461;-81
2023/01/29 06:39:18;;;;;;;113.57;32.08;;;4.00;99.90;;;2.50;100.00;101786.50;4937222;28;20042;-79
2023/01/29 06:41:45;;;;;;;106.88;32.53;;;4.10;99.90;;;2.51;100.00;101761.41;4911826;28;20181;-80
2023/01/29 06:44:11;;;;;;;106.47;32.60;;;4.00;99.90;;;2.48;100.00;101762.25;4903584;28;20078;-80
2023/01/29 06:46:36;;;;;;;105.07;32.90;;;4.10;99.90;;;2.50;100.00;101770.91;4927030;28;20066;-80
2023/01/29 06:49:07;;;;;;;100.90;32.30;;;4.10;99.90;;;2.54;100.00;101779.59;4922315;28;20053;-81
2023/01/29 06:51:33;;;;;;;97.28;32.42;;;4.10;99.90;;;2.49;100.00;101773.53;4913639;28;20055;-80
2023/01/29 06:53:59;;;;;;;103.85;32.83;;;4.10;99.90;;;2.49;100.00;101769.19;4883825;28;20043;-80
2023/01/29 06:56:25;;;;;;;104.50;33.60;;;4.10;99.90;;;2.50;100.00;101781.31;4905506;28;20030;-81
2023/01/29 06:58:50;;;;;;;100.00;33.53;;;4.10;99.90;;;2.49;100.00;101795.19;4911466;28;21302;-81
2023/01/29 07:01:16;;;;;;;104.45;34.88;;;4.10;99.90;;;2.49;100.00;101783.94;4917552;28;20035;-81
2023/01/29 07:03:42;;;;;;;101.93;34.08;;;4.10;99.90;;;2.50;100.00;101791.72;4946304;28;20065;-82
2023/01/29 07:06:15;;;;;;;111.80;35.15;;;4.10;99.90;;;2.51;100.00;101792.59;4896835;28;20047;-81
2023/01/29 07:08:41;;;;;;;113.50;35.30;;;4.10;99.90;;;2.55;100.00;101786.53;4914923;28;20046;-80
2023/01/29 07:11:07;;;;;;;105.78;34.78;;;4.10;99.90;;;2.54;100.00;101787.41;4920881;28;21555;-82
2023/01/29 07:13:38;;;;;;;117.03;37.25;;;4.10;99.90;;;2.55;100.00;101790.00;4944835;28;20042;-80
2023/01/29 07:16:05;;;;;;;109.63;36.55;;;4.10;99.90;;;2.54;100.00;101762.25;4881213;28;20125;-81
2023/01/29 07:18:31;;;;;;;110.35;34.80;;;4.10;99.90;;;2.56;100.00;101776.13;4908751;28;20080;-80
2023/01/29 07:20:57;;;;;;;120.28;36.90;;;4.10;99.90;;;2.56;100.00;101765.75;4921351;28;20079;-80
2023/01/29 07:23:24;;;;;;;109.80;36.45;;;4.10;99.90;;;2.58;100.00;101757.94;4920235;28;20065;-80
2023/01/29 07:25:56;;;;;;;113.30;35.17;;;4.20;99.90;;;2.61;100.00;101764.03;4931261;28;20073;-80
2023/01/29 07:28:21;;;;;;;105.20;33.45;;;4.20;99.90;;;2.60;100.00;101764.03;4909285;28;20118;-80
2023/01/29 07:30:47;;;;;;;114.05;36.08;;;4.20;99.90;;;2.64;100.00;101766.63;4916350;28;20038;-81
2023/01/29 07:33:13;;;;;;;110.15;35.83;;;4.20;99.90;;;2.66;100.00;101762.31;4936434;28;20058;-81
2023/01/29 07:35:52;;;;;;;109.97;35.17;;;4.30;99.90;;;2.69;100.00;101765.78;4913725;28;20038;-81
2023/01/29 07:38:17;;;;;;;107.90;35.58;;;4.30;99.90;;;2.67;100.00;101756.22;4907429;28;20527;-81
2023/01/29 07:40:43;;;;;;;98.50;35.28;;;4.30;99.90;;;2.71;100.00;101748.44;4913018;28;20092;-80
2023/01/29 07:43:15;;;;;;;106.88;35.92;;;4.30;99.90;;;2.76;100.00;101751.91;4894436;28;20519;-81
2023/01/29 07:45:40;;;;;;;93.43;33.33;;;4.30;99.90;;;2.78;100.00;101760.59;4924558;28;20129;-81
2023/01/29 07:48:10;;;;;;;93.82;33.88;;;4.30;99.90;;;2.80;100.00;101761.47;4926436;28;20460;-80
2023/01/29 07:50:39;;;;;;;102.07;34.10;;;4.30;99.90;;;2.81;100.00;101760.63;4917451;28;20066;-81
2023/01/29 07:53:14;;;;;;;99.40;34.63;;;4.40;99.90;;;2.81;100.00;101763.22;4923806;28;20038;-81
2023/01/29 07:55:48;;;;;;;87.57;32.45;;;4.40;99.90;;;2.84;100.00;101760.59;4896138;28;20070;-81
2023/01/29 07:58:13;;;;;;;85.60;32.75;;;4.80;99.90;;;2.84;100.00;101750.22;4900688;28;20038;-81
2023/01/29 08:00:39;;;;;;;84.03;32.70;;;4.40;99.90;;;2.86;100.00;101745.88;4917373;28;20044;-81
2023/01/29 08:03:19;;;;;;;90.50;31.15;;;4.40;99.90;;;2.84;100.00;101739.81;4926026;28;20046;-80
2023/01/29 08:05:49;;;;;;;91.35;31.88;;;4.40;99.90;;;2.88;100.00;101733.75;4925595;28;20042;-81
2023/01/29 08:08:20;;;;;;;77.63;29.77;;;4.40;99.90;;;2.88;100.00;101733.75;4930919;28;20042;-79
2023/01/29 08:10:49;;;;;;;77.45;30.05;;;4.50;99.90;;;2.90;100.00;101734.63;4944296;28;20048;-81
2023/01/29 08:13:23;;;;;;;81.30;30.95;;;4.50;99.90;;;2.96;100.00;101739.81;4915290;28;20038;-80
2023/01/29 08:15:49;;;;;;;71.22;30.35;;;4.50;99.90;;;2.96;100.00;101731.13;4940486;28;20027;-79
2023/01/29 08:18:15;;;;;;;72.32;30.02;;;4.50;99.90;;;2.97;100.00;101743.28;4949962;28;20041;-80
2023/01/29 08:20:41;;;;;;;69.35;28.35;;;4.50;99.90;;;2.96;100.00;101749.34;4958793;28;20572;-79
2023/01/29 08:23:16;;;;;;;63.90;27.92;;;4.60;99.90;;;2.99;100.00;101760.63;4946913;28;20046;-81
2023/01/29 08:25:43;;;;;;;75.38;28.67;;;4.50;99.90;;;3.02;100.00;101768.47;4923196;28;20039;-80
2023/01/29 08:28:12;;;;;;;65.60;27.48;;;4.60;99.90;;;3.05;100.00;101760.66;4886458;28;20062;-81
2023/01/29 08:30:43;;;;;;;70.53;27.95;;;4.60;99.90;;;3.05;100.00;101758.03;4959812;28;20041;-81
2023/01/29 08:33:09;;;;;;;65.47;27.88;;;4.60;99.90;;;3.09;100.00;101748.50;4944784;28;20057;-81
2023/01/29 08:35:40;;;;;;;62.67;25.55;;;4.60;99.90;;;3.08;100.00;101742.41;4919337;28;20042;-80
2023/01/29 08:38:11;;;;;;;71.63;26.70;;;4.60;99.90;;;3.13;100.00;101755.44;4929211;28;20034;-80
2023/01/29 08:40:37;;;;;;;60.13;25.60;;;4.70;99.90;;;3.15;100.00;101756.28;4951791;28;20038;-80
2023/01/29 08:43:06;;;;;;;63.40;26.27;;;4.70;99.90;;;3.16;100.00;101757.19;4935526;28;20134;-80
2023/01/29 08:45:38;;;;;;;59.13;24.25;;;4.70;99.90;;;3.21;100.00;101758.03;4966680;28;20058;-80
2023/01/29 08:48:05;;;;;;;69.10;26.08;;;4.70;99.90;;;3.25;100.00;101751.97;4932250;28;20041;-80
2023/01/29 08:50:33;;;;;;;59.58;23.98;;;4.80;99.90;;;3.31;100.00;101756.31;4933657;28;20030;-80
2023/01/29 08:53:09;;;;;;;61.63;24.45;;;4.80;99.90;;;3.34;100.00;101753.72;4891277;28;20046;-81
2023/01/29 08:55:40;;;;;;;53.25;22.55;;;4.80;99.90;;;3.36;100.00;101742.44;4935437;28;20034;-81
2023/01/29 08:58:11;;;;;;;56.13;23.10;;;4.90;99.90;;;3.38;100.00;101732.88;4920158;28;20053;-79
2023/01/29 09:00:40;;;;;;;50.60;22.35;;;4.90;99.90;;;3.39;100.00;101724.22;4950285;28;20038;-81
2023/01/29 09:03:10;;;;;;;47.00;22.10;;;4.90;99.90;;;3.42;100.00;101725.94;4946235;28;20178;-81
2023/01/29 09:05:38;;;;;;;46.95;22.05;;;4.90;99.90;;;3.44;100.00;101732.88;4935523;28;20038;-80
2023/01/29 09:08:09;;;;;;;48.95;20.60;;;4.90;99.90;;;3.46;100.00;101743.31;4956912;28;20030;-80
2023/01/29 09:10:44;;;;;;;35.45;18.67;;;5.00;99.90;;;3.49;100.00;101733.72;4940642;28;20522;-82
2023/01/29 09:13:13;;;;;;;48.38;43.33;;;5.00;99.90;;;3.45;100.00;101733.75;4916511;28;20065;-80
2023/01/29 09:15:40;;;;;;;43.72;18.60;;;5.00;99.90;;;3.44;100.00;101738.09;4921906;28;20034;-81
2023/01/29 09:18:12;;;;;;;43.65;20.75;;;5.00;99.90;;;3.46;100.00;101744.16;4897167;28;20065;-82
2023/01/29 09:20:38;;;;;;;48.70;22.95;;;5.00;99.90;;;3.49;100.00;101738.94;4942526;28;20038;-80
2023/01/29 09:23:07;;;;;;;44.30;21.13;;;5.00;99.90;;;3.53;100.00;101742.41;4901539;28;20046;-80
2023/01/29 09:25:41;;;;;;;54.97;21.98;;;5.00;99.90;;;3.55;100.00;101734.59;4923142;28;20089;-80
2023/01/29 09:28:10;;;;;;;49.53;22.50;;;5.10;99.90;;;3.53;100.00;101741.56;4940852;28;20030;-80
2023/01/29 09:30:37;;;;;;;50.38;22.02;;;5.00;99.90;;;3.57;100.00;101740.69;4926926;28;20065;-82
2023/01/29 09:33:12;;;;;;;54.28;23.33;;;5.10;99.90;;;3.59;100.00;101732.00;4923818;28;20054;-83
2023/01/29 09:35:54;;;;;;;54.88;22.23;;;5.10;99.90;;;3.54;100.00;101725.91;4896491;28;20664;-80
2023/01/29 09:38:31;;;;;;;59.35;23.55;;;5.10;99.90;;;3.52;100.00;101726.78;4919635;28;20122;-80
2023/01/29 09:41:48;;;;;;;57.47;22.85;;;5.00;99.90;;;3.50;100.00;101716.41;4922337;28;20090;-82
2023/01/29 09:44:50;;;;;;;55.75;22.45;;;5.00;99.90;;;3.42;100.00;101708.56;4946925;28;20042;-81
2023/01/29 09:47:19;;;;;;;58.83;23.05;;;5.00;99.90;;;3.40;100.00;101692.09;4948325;28;20059;-82
2023/01/29 09:49:56;;;;;;;60.75;24.00;;;5.00;99.90;;;3.45;100.00;101698.16;4940981;28;20094;-80
2023/01/29 09:52:35;;;;;;;56.58;24.25;;;5.00;99.90;;;3.48;100.00;101690.34;4950121;28;20041;-80
2023/01/29 09:55:31;;;;;;;61.13;25.70;;;5.00;99.90;;;3.49;100.00;101686.84;4926583;28;20064;-79
2023/01/29 09:57:59;;;;;;;62.70;24.50;;;5.00;99.90;;;3.54;100.00;101671.22;4963638;28;20037;-80
2023/01/29 10:01:08;;;;;;;60.70;24.60;;;5.10;99.90;;;3.61;100.00;101670.34;4956195;28;20143;-81
2023/01/29 10:04:21;;;;;;;56.47;23.30;;;5.10;99.90;;;3.64;100.00;101653.84;4955851;28;20478;-81
2023/01/29 10:07:19;;;;;;;49.55;22.50;;;5.10;99.90;;;3.63;100.00;101645.16;4934063;28;20149;-81
2023/01/29 10:10:27;;;;;;;54.53;22.88;;;5.20;99.90;;;3.68;100.00;101646.00;4926168;28;20045;-82
2023/01/29 10:13:45;;;;;;;52.45;22.63;;;5.20;99.90;;;3.68;100.00;101647.75;4942986;28;20030;-81
2023/01/29 10:16:59;;;;;;;41.58;19.00;;;5.20;99.90;;;3.61;100.00;101646.06;4907076;28;20542;-80
2023/01/29 10:19:49;;;;;;;49.15;20.35;;;5.20;99.90;;;3.62;100.00;101647.78;4930422;28;20030;-81
2023/01/29 10:22:49;;;;;;;35.30;17.92;;;5.20;99.90;;;3.60;100.00;101647.75;4937431;28;20450;-81
2023/01/29 10:25:21;;;;;;;39.22;17.92;;;5.20;99.90;;;3.61;100.00;101636.50;4963914;28;20130;-81
2023/01/29 10:28:02;;;;;;;32.55;16.45;;;5.20;99.90;;;3.64;100.00;101635.63;4946638;28;20026;-81
2023/01/29 10:30:46;;;;;;;35.22;17.75;;;5.20;99.90;;;3.70;100.00;101636.44;4936400;28;20065;-81
2023/01/29 10:33:24;;;;;;;35.88;17.23;;;5.20;99.90;;;3.73;100.00;101639.91;4949067;28;20045;-81
2023/01/29 10:36:05;;;;;;;35.28;17.45;;;5.30;99.90;;;3.74;100.00;101645.13;4957400;28;20023;-81
2023/01/29 10:38:54;;;;;;;32.25;15.77;;;5.30;99.90;;;3.71;100.00;101632.09;4930481;28;20049;-81
2023/01/29 10:41:46;;;;;;;27.48;15.93;;;5.30;99.90;;;3.77;100.00;101629.47;4931793;28;20065;-82
2023/01/29 10:44:45;;;;;;;22.35;13.15;;;5.30;99.90;;;3.78;100.00;101635.56;4921074;28;20125;-80
2023/01/29 10:47:56;;;;;;;27.35;15.02;;;5.30;99.90;;;3.81;100.00;101619.91;4959027;28;20631;-81
2023/01/29 10:50:46;;;;;;;25.15;14.05;;;5.30;99.90;;;3.84;100.00;101610.34;4979760;28;20074;-81
2023/01/29 10:53:45;;;;;;;24.92;14.45;;;5.30;99.90;;;3.87;100.00;101604.28;4937127;28;20582;-81
2023/01/29 10:56:36;;;;;;;29.88;15.23;;;5.40;99.90;;;3.85;100.00;101593.84;4963106;28;20088;-80
2023/01/29 10:59:33;;;;;;;28.65;14.93;;;5.40;99.90;;;3.83;100.00;101618.19;4980421;28;20038;-78
2023/01/29 11:02:02;;;;;;;25.00;14.30;;;5.40;99.90;;;3.76;100.00;101606.91;4979640;28;20084;-80
2023/01/29 11:04:35;;;;;;;24.00;14.30;;;5.30;99.90;;;3.75;100.00;101602.56;4891802;28;20073;-82
2023/01/29 11:07:01;;;;;;;22.70;14.15;;;5.30;99.90;;;3.73;100.00;101614.72;4913683;28;20050;-80
2023/01/29 11:09:41;;;;;;;24.33;14.15;;;5.30;99.90;;;3.74;100.00;101611.28;4947201;28;20034;-80
2023/01/29 11:12:29;;;;;;;22.60;13.48;;;5.30;99.90;;;3.76;100.00;101606.91;4939336;28;20041;-80
2023/01/29 11:15:23;;;;;;;22.23;13.20;;;5.30;99.90;;;3.76;100.00;101611.25;4970827;28;20043;-81